KDEC/DEC METAR and TAF weather

Enter ICAO airport designator
Station Type Date Time Source
KDEC METAR 2020/09/19 00:54 UTC NOAA

KDEC 190054Z 03007KT 10SM CLR 12/06 A3030 RMK AO2 SLP262 T01170061


Station Type Date Time Source
KDEC Decoded METAR 2020/09/19 00:54 UTC NOAA

DECATUR AIRPORT, IL, United States (KDEC) 39-50N 88-52W 207M
Sep 18, 2020 - 08:54 PM EDT / 2020.09.19 0054 UTC
Wind: from the NNE (030 degrees) at 8 MPH (7 KT):0
Visibility: 10 mile(s):0
Sky conditions: clear
Temperature: 53.1 F (11.7 C)
Dew Point: 43.0 F (6.1 C)
Relative Humidity: 68%
Pressure (altimeter): 30.3 in. Hg (1026 hPa)
ob: KDEC 190054Z 03007KT 10SM CLR 12/06 A3030 RMK AO2 SLP262 T01170061
cycle: 1

Station Type Date Time Source
KDEC TAF 2020/09/18 18:39 UTC NOAA

TAF KDEC 181836Z 1818/1918 05014G20KT P6SM SKC
FM190000 04006KT P6SM SKC
FM191400 09008KT P6SM SKC

Example: see airport list